Flight Track Log - Related Links

Times and Time Zones

All times are in EDT time to prevent confusion due to time zone crossing. See the RPA3143 flight status page for this flight to view local times or setup timezone preferences in your user account.


Time Position Orientation Groundspeed Altitude Reporting Facility
EDT Latitude Longitude Course Direction KTS MPH feet Rate Location/Type
Thu 08:04:01 AM 38.8000 -77.0333 233° Southwest 178 205 1,600  Level Potomac TRACON
Thu 08:05:00 AM 38.6319 -77.2848 218° Southwest  Level FlightAware Approximate
Thu 08:05:01 AM 38.7333 -77.0333 180° South 258 297 3,400  Level Potomac TRACON
Thu 08:05:55 AM 38.7000 -77.1000 237° Southwest 272 313 6,200 2,826 Climbing Potomac TRACON
Thu 08:06:00 AM 38.5525 -77.3642 218° Southwest  Level FlightAware Approximate
Thu 08:07:00 AM 38.4795 -77.4526 225° Southwest  Level FlightAware Approximate
Thu 08:07:36 AM 38.6583 -77.2347 248° West 268 308 10,700  Level Washington Center
Thu 08:08:00 AM 38.4059 -77.5387 201° Southwest  Level FlightAware Approximate
Thu 08:08:36 AM 38.5967 -77.3131 225° Southwest 282 325 12,300  Level Washington Center
Thu 08:09:00 AM 38.3369 -77.6274 233° Southwest  Level FlightAware Approximate
Thu 08:09:34 AM 38.5331 -77.3964 226° Southwest 298 343 14,600  Level Washington Center
Thu 08:10:35 AM 38.4628 -77.4850 225° Southwest 324 373 16,500 1,835 Climbing Washington Center
Thu 08:11:35 AM 38.3861 -77.5836 225° Southwest 345 397 18,300 1,780 Climbing Washington Center
Thu 08:12:33 AM 38.3197 -77.6850 230° Southwest 364 419 20,000 1,714 Climbing Washington Center
Thu 08:13:34 AM 38.2531 -77.7917 232° Southwest 376 433 21,700 2,016 Climbing Washington Center
Thu 08:14:35 AM 38.1867 -77.8928 230° Southwest 381 438 24,100 1,950 Climbing Washington Center
Thu 08:15:34 AM 38.1200 -77.9908 229° Southwest 381 438 25,600 1,412 Climbing Washington Center
Thu 08:16:34 AM 38.0533 -78.0944 231° Southwest 381 438 26,900 1,200 Climbing Washington Center
Thu 08:17:34 AM 37.9825 -78.1894 227° Southwest 381 438 28,000 1,041 Climbing Washington Center
Thu 08:18:35 AM 37.8953 -78.2706 216° Southwest 376 433 29,000 984 Climbing Washington Center
Thu 08:19:36 AM 37.8056 -78.3569 217° Southwest 397 457 30,000 893 Climbing Washington Center
Thu 08:20:36 AM 37.7225 -78.4325 216° Southwest 407 468 30,800 915 Climbing Washington Center
Thu 08:21:34 AM 37.6328 -78.5183 217° Southwest 413 475 31,800 966 Climbing Washington Center
Thu 08:22:34 AM 37.5411 -78.6039 217° Southwest 413 475 32,700 942 Climbing Washington Center
Thu 08:23:35 AM 37.4492 -78.6867 216° Southwest 413 475 33,700 645 Climbing Washington Center
Thu 08:24:35 AM 37.3508 -78.7819 218° Southwest 413 475 34,000 149 Climbing Washington Center
Thu 08:25:36 AM 37.2589 -78.8642 215° Southwest 413 475 34,000  Level Washington Center
Thu 08:26:36 AM 37.1667 -78.9514 217° Southwest 418 481 34,000  Level Washington Center
Thu 08:27:34 AM 37.0747 -79.0358 216° Southwest 418 481 34,000  Level Washington Center
Thu 08:28:34 AM 36.9825 -79.1203 216° Southwest 418 481 34,000  Level Washington Center
Thu 08:29:35 AM 36.8989 -79.1969 216° Southwest 418 481 34,000  Level Washington Center
Thu 08:30:35 AM 36.8064 -79.2833 217° Southwest 418 481 34,000  Level Washington Center
Thu 08:31:34 AM 36.7142 -79.3697 217° Southwest 418 481 34,000  Level Washington Center
Thu 08:32:34 AM 36.6239 -79.4506 216° Southwest 418 481 34,000  Level Washington Center
Thu 08:34:35 AM 36.4214 -79.6319 216° Southwest 416 479 34,000  Level Atlanta Center
Thu 08:35:35 AM 36.3325 -79.7167 218° Southwest 421 484 34,000  Level Atlanta Center
Thu 08:36:35 AM 36.2475 -79.7908 215° Southwest 421 484 34,000  Level Atlanta Center
Thu 08:37:35 AM 36.1522 -79.8731 215° Southwest 421 484 34,000  Level Atlanta Center
Thu 08:38:35 AM 36.0592 -79.9575 216° Southwest 421 484 34,000  Level Atlanta Center
Thu 08:39:35 AM 35.9425 -80.0247 205° Southwest 415 478 34,000  Level Atlanta Center
Thu 08:40:35 AM 35.8358 -80.0786 202° Southwest 422 486 34,000  Level Atlanta Center
Thu 08:41:35 AM 35.7272 -80.1353 203° Southwest 422 486 34,000  Level Atlanta Center
Thu 08:42:35 AM 35.6286 -80.1858 203° Southwest 434 499 34,000  Level Atlanta Center
Thu 08:43:35 AM 35.5131 -80.2269 196° South 429 494 34,000  Level Atlanta Center
Thu 08:44:35 AM 35.3972 -80.2631 194° South 424 488 34,000  Level Atlanta Center
Thu 08:45:35 AM 35.2814 -80.2964 193° South 434 499 34,000  Level Atlanta Center
Thu 08:46:35 AM 35.1658 -80.3319 194° South 428 493 34,000  Level Atlanta Center
Thu 08:48:50 AM 34.9050 -80.4094 194° South 441 507 34,000  Level Jacksonville Center
Thu 08:49:50 AM 34.7828 -80.4458 194° South 428 493 34,000  Level Jacksonville Center
Thu 08:50:50 AM 34.6686 -80.4819 195° South 428 493 34,000  Level Jacksonville Center
Thu 08:51:50 AM 34.5506 -80.5156 193° South 433 498 34,000  Level Jacksonville Center
Thu 08:52:50 AM 34.4342 -80.5489 193° South 433 498 34,000  Level Jacksonville Center
Thu 08:53:50 AM 34.3181 -80.5847 194° South 433 498 34,000  Level Jacksonville Center
Thu 08:54:50 AM 34.1997 -80.6178 193° South 433 498 34,000  Level Jacksonville Center
Thu 08:55:50 AM 34.0794 -80.6511 193° South 438 504 34,000  Level Jacksonville Center
Thu 08:56:50 AM 33.9611 -80.6892 195° South 438 504 34,000  Level Jacksonville Center
Thu 08:57:50 AM 33.8428 -80.7222 193° South 443 510 34,000  Level Jacksonville Center
Thu 08:58:50 AM 33.7222 -80.7575 194° South 448 516 34,000  Level Jacksonville Center
Thu 08:59:50 AM 33.6019 -80.7931 194° South 448 516 34,000  Level Jacksonville Center
Thu 09:00:50 AM 33.4836 -80.8281 194° South 448 516 34,000  Level Jacksonville Center
Thu 09:01:50 AM 33.3631 -80.8608 193° South 448 516 34,000  Level Jacksonville Center
Thu 09:02:50 AM 33.2444 -80.8933 193° South 448 516 34,000  Level Jacksonville Center
Thu 09:03:50 AM 33.1261 -80.9281 194° South 448 516 34,000  Level Jacksonville Center
Thu 09:04:50 AM 33.0161 -80.9578 193° South 448 516 34,000  Level Jacksonville Center
Thu 09:05:50 AM 32.8975 -80.9925 194° South 448 516 34,000  Level Jacksonville Center
Thu 09:06:50 AM 32.7792 -81.0272 194° South 448 516 34,000  Level Jacksonville Center
Thu 09:07:50 AM 32.6500 -81.0569 191° South 443 510 34,000  Level Jacksonville Center
Thu 09:08:50 AM 32.5375 -81.0714 186° South 443 510 34,000  Level Jacksonville Center
Thu 09:09:50 AM 32.4122 -81.0739 181° South 443 510 34,000  Level Jacksonville Center
Thu 09:10:50 AM 32.2872 -81.0742 180° South 443 510 34,000  Level Jacksonville Center
Thu 09:11:50 AM 32.1661 -81.0764 181° South 443 510 34,000  Level Jacksonville Center
Thu 09:12:50 AM 32.0428 -81.0789 181° South 443 510 34,000  Level Jacksonville Center
Thu 09:13:50 AM 31.9178 -81.0789 180° South 438 504 34,000  Level Jacksonville Center
Thu 09:14:50 AM 31.7819 -81.0839 182° South 445 512 34,000  Level Jacksonville Center
Thu 09:15:50 AM 31.6547 -81.0889 182° South 450 518 34,000  Level Jacksonville Center
Thu 09:16:50 AM 31.5419 -81.0886 180° South 455 524 34,000  Level Jacksonville Center
Thu 09:17:50 AM 31.4000 -81.0914 181° South 455 524 34,000  Level Jacksonville Center
Thu 09:18:50 AM 31.2706 -81.0914 180° South 460 529 34,000  Level Jacksonville Center
Thu 09:19:51 AM 31.1411 -81.0917 180° South 460 529 34,000  Level Jacksonville Center
Thu 09:20:50 AM 31.0158 -81.0939 181° South 455 524 34,000  Level Jacksonville Center
Thu 09:21:50 AM 30.8886 -81.0964 181° South 455 524 34,000  Level Jacksonville Center
Thu 09:22:50 AM 30.7592 -81.0939 179° South 455 524 34,000  Level Jacksonville Center
Thu 09:23:50 AM 30.6317 -81.0989 182° South 455 524 34,000  Level Jacksonville Center
Thu 09:24:50 AM 30.5044 -81.0989 180° South 455 524 34,000  Level Jacksonville Center
Thu 09:25:50 AM 30.3772 -81.1011 181° South 460 529 34,000  Level Jacksonville Center
Thu 09:26:50 AM 30.2478 -81.1011 180° South 460 529 34,000 -550 Level Jacksonville Center
Thu 09:27:50 AM 30.1203 -81.1036 181° South 460 529 32,900 -1,800 Descending Jacksonville Center
Thu 09:28:50 AM 29.9889 -81.1036 180° South 460 529 30,400 -2,500 Descending Jacksonville Center
Thu 09:29:50 AM 29.8594 -81.1061 181° South 460 529 27,900 -2,450 Descending Jacksonville Center
Thu 09:30:50 AM 29.7364 -81.1106 182° South 455 524 25,500 -2,350 Descending Jacksonville Center
Thu 09:31:50 AM 29.6153 -81.1128 181° South 443 510 23,200 -2,250 Descending Jacksonville Center
Thu 09:32:50 AM 29.5006 -81.1150 181° South 431 496 21,000 -2,050 Descending Jacksonville Center
Thu 09:33:50 AM 29.3900 -81.1169 181° South 417 480 19,100 -1,950 Descending Jacksonville Center
Thu 09:34:50 AM 29.2875 -81.1139 179° South 397 457 17,100 -1,950 Descending Jacksonville Center
Thu 09:35:50 AM 29.1872 -81.1086 177° South 378 435 15,200 -1,900 Descending Jacksonville Center
Thu 09:36:50 AM 29.0911 -81.0986 175° South 360 414 13,300 -1,600 Descending Jacksonville Center
Thu 09:37:50 AM 29.0014 -81.0906 176° South 341 392 12,000 -650 Descending Jacksonville Center
Thu 09:38:50 AM 28.9197 -81.0828 175° South 318 366 12,000 -550 Level Jacksonville Center
Thu 09:39:50 AM 28.8403 -81.0794 178° South 308 354 10,900 -1,300 Descending Jacksonville Center
Thu 09:40:50 AM 28.7589 -81.0714 175° South 303 349 9,400 -1,100 Descending Jacksonville Center
Thu 09:41:50 AM 28.7286 -81.1358 242° Southwest 218 251 8,700 -1,150 Descending Jacksonville Center
Thu 09:42:50 AM 28.7253 -81.2164 267° West 206 237 7,100 -1,350 Descending Jacksonville Center
Thu 09:43:50 AM 28.6908 -81.2786 238° Southwest 219 252 6,000 -1,200 Descending Jacksonville Center
Thu 09:44:50 AM 28.6408 -81.3031 203° Southwest 198 228 4,700 -1,401 Descending Jacksonville Center
Thu 09:46:07 AM 28.5833 -81.3000 177° South 166 191 2,800 -1,182 Descending Orlando TRACON
Thu 09:47:07 AM 28.5333 -81.3000 180° South 168 193 2,000 -800 Descending Orlando TRACON

Login

Don't have an account? Register now (free) for customized features, flight alerts, and more!